createdAt,value
2023-10-05T00:01:57.375Z,101761.84
2023-10-05T00:04:28.298Z,101755.72
2023-10-05T00:06:56.992Z,101761.69
2023-10-05T00:09:26.037Z,101762.84
2023-10-05T00:11:58.778Z,101762.22
2023-10-05T00:14:26.926Z,101765.69
2023-10-05T00:16:56.655Z,101758.56
2023-10-05T00:19:28.867Z,101761.41
2023-10-05T00:21:58.415Z,101760.56
2023-10-05T00:24:31.234Z,101758.91
2023-10-05T00:27:00.860Z,101759.06
2023-10-05T00:29:30.548Z,101762.56
2023-10-05T00:32:01.702Z,101762.56
2023-10-05T00:34:30.255Z,101753.94
2023-10-05T00:37:01.131Z,101748.97
2023-10-05T00:39:33.018Z,101752.47
2023-10-05T00:42:10.259Z,101742.84
2023-10-05T00:44:41.515Z,101751.63
2023-10-05T00:47:13.407Z,101735.88
2023-10-05T00:49:53.563Z,101730.56
2023-10-05T00:52:26.219Z,101739.53
2023-10-05T00:54:56.618Z,101737.03
2023-10-05T00:57:26.473Z,101732.75
2023-10-05T01:00:14.919Z,101736.41
2023-10-05T01:03:05.121Z,101737.56
2023-10-05T01:05:49.050Z,101726.75
2023-10-05T01:08:24.357Z,101727.13
2023-10-05T01:10:55.556Z,101719.16
2023-10-05T01:13:35.053Z,101722.97
2023-10-05T01:16:17.238Z,101713.84
2023-10-05T01:18:46.290Z,101708.72
2023-10-05T01:21:14.762Z,101706.22
2023-10-05T01:23:45.903Z,101710.72
2023-10-05T01:26:14.394Z,101710.91
2023-10-05T01:28:43.418Z,101707.88
2023-10-05T01:31:19.000Z,101703.75
2023-10-05T01:33:48.277Z,101703.56
2023-10-05T01:36:19.041Z,101702.09
2023-10-05T01:38:50.006Z,101697.63
2023-10-05T01:41:22.774Z,101697.63
2023-10-05T01:43:53.293Z,101699.28
2023-10-05T01:46:22.679Z,101681.69
2023-10-05T01:48:53.230Z,101683.34
2023-10-05T01:51:26.661Z,101682.53
2023-10-05T01:54:02.643Z,101671.91
2023-10-05T01:56:31.233Z,101667.59
2023-10-05T01:59:01.712Z,101670.25
2023-10-05T02:01:30.515Z,101670.59
2023-10-05T02:04:00.823Z,101672.25
2023-10-05T02:06:30.694Z,101666.09
2023-10-05T02:09:00.376Z,101664.47
2023-10-05T02:11:29.422Z,101653.84
2023-10-05T02:14:05.412Z,101659.78
2023-10-05T02:16:34.338Z,101659.97
2023-10-05T02:19:05.036Z,101656.50
2023-10-05T02:21:37.557Z,101654.84
2023-10-05T02:24:18.007Z,101647.72
2023-10-05T02:27:10.785Z,101649.34
2023-10-05T02:29:44.012Z,101653.16
2023-10-05T02:32:13.075Z,101643.75
2023-10-05T02:34:43.555Z,101643.09
2023-10-05T02:37:12.935Z,101649.25
2023-10-05T02:39:43.730Z,101657.84
2023-10-05T02:42:14.987Z,101649.25
2023-10-05T02:44:44.327Z,101636.94
2023-10-05T02:47:14.850Z,101652.88
2023-10-05T02:49:46.014Z,101651.41
2023-10-05T02:52:17.177Z,101651.41
2023-10-05T02:54:49.527Z,101643.44
2023-10-05T02:57:18.755Z,101640.94
2023-10-05T02:59:47.171Z,101639.97
2023-10-05T03:02:18.159Z,101642.78
2023-10-05T03:04:48.778Z,101635.63
2023-10-05T03:07:19.265Z,101635.63
2023-10-05T03:09:50.573Z,101618.88
2023-10-05T03:12:21.938Z,101610.78
2023-10-05T03:14:52.168Z,101600.50
2023-10-05T03:17:22.351Z,101603.78
2023-10-05T03:19:51.669Z,101595.53
2023-10-05T03:22:25.717Z,101590.06
2023-10-05T03:24:57.652Z,101596.19
2023-10-05T03:27:27.561Z,101582.09
2023-10-05T03:30:02.123Z,101576.31
2023-10-05T03:32:31.251Z,101585.09
2023-10-05T03:35:00.484Z,101563.03
2023-10-05T03:37:31.048Z,101572.19
2023-10-05T03:40:08.955Z,101570.38
2023-10-05T03:42:37.345Z,101564.41
2023-10-05T03:45:11.226Z,101568.41
2023-10-05T03:47:40.127Z,101548.38
2023-10-05T03:50:10.093Z,101556.97
2023-10-05T03:52:38.927Z,101564.09
2023-10-05T03:55:11.537Z,101565.75
2023-10-05T03:57:39.924Z,101569.59
2023-10-05T04:00:20.319Z,101560.97
2023-10-05T04:02:48.967Z,101579.53
2023-10-05T04:05:19.775Z,101576.25
2023-10-05T04:07:49.336Z,101575.25
2023-10-05T04:10:25.113Z,101575.25
2023-10-05T04:12:56.177Z,101589.53
2023-10-05T04:15:27.100Z,101595.66
2023-10-05T04:17:55.486Z,101595.00
2023-10-05T04:20:29.540Z,101603.78
2023-10-05T04:22:58.117Z,101602.13
2023-10-05T04:25:27.971Z,101601.97
2023-10-05T04:27:56.958Z,101604.13
2023-10-05T04:30:25.448Z,101594.16
2023-10-05T04:32:53.886Z,101606.78
2023-10-05T04:35:24.645Z,101611.44
2023-10-05T04:37:52.858Z,101620.38
2023-10-05T04:40:25.711Z,101620.56
2023-10-05T04:43:00.483Z,101612.59
2023-10-05T04:45:29.624Z,101615.44
2023-10-05T04:48:00.344Z,101612.13
2023-10-05T04:50:29.120Z,101608.66
2023-10-05T04:52:59.623Z,101613.31
2023-10-05T04:55:34.309Z,101601.38
2023-10-05T04:58:25.737Z,101603.38
2023-10-05T05:01:16.932Z,101601.53
2023-10-05T05:03:57.796Z,101590.47
2023-10-05T05:06:28.679Z,101582.66
2023-10-05T05:08:56.988Z,101582.53
2023-10-05T05:11:26.974Z,101581.69
2023-10-05T05:13:56.641Z,101573.88
2023-10-05T05:16:25.018Z,101569.06
2023-10-05T05:18:57.056Z,101567.44
2023-10-05T05:21:25.357Z,101563.13
2023-10-05T05:23:53.604Z,101571.09
2023-10-05T05:26:21.905Z,101564.97
2023-10-05T05:28:50.791Z,101566.94
2023-10-05T05:31:22.703Z,101565.78
2023-10-05T05:33:50.972Z,101582.66
2023-10-05T05:36:19.286Z,101575.56
2023-10-05T05:38:50.757Z,101575.56
2023-10-05T05:41:20.573Z,101574.25
2023-10-05T05:43:49.384Z,101578.84
2023-10-05T05:46:19.113Z,101582.53
2023-10-05T05:48:54.097Z,101573.88
2023-10-05T05:51:25.791Z,101576.03
2023-10-05T05:53:54.098Z,101575.19
2023-10-05T05:56:30.343Z,101579.16
2023-10-05T05:58:58.928Z,101579.81
2023-10-05T06:01:27.636Z,101569.19
2023-10-05T06:03:57.694Z,101565.91
2023-10-05T06:06:25.942Z,101577.16
2023-10-05T06:08:54.100Z,101577.16
2023-10-05T06:11:22.219Z,101571.50
2023-10-05T06:13:50.483Z,101579.47
2023-10-05T06:16:19.234Z,101582.78
2023-10-05T06:18:47.539Z,101583.59
2023-10-05T06:21:17.583Z,101580.97
2023-10-05T06:23:45.792Z,101577.47
2023-10-05T06:26:14.077Z,101585.78
2023-10-05T06:28:42.346Z,101574.50
2023-10-05T06:31:13.657Z,101570.19
2023-10-05T06:33:43.964Z,101563.25
2023-10-05T06:36:12.130Z,101569.56
2023-10-05T06:38:45.731Z,101558.75
2023-10-05T06:41:14.295Z,101553.28
2023-10-05T06:43:43.908Z,101541.03
2023-10-05T06:46:18.945Z,101548.81
2023-10-05T06:48:47.207Z,101570.69
2023-10-05T06:51:24.284Z,101573.16
2023-10-05T06:53:54.126Z,101570.50
2023-10-05T06:56:22.918Z,101579.28
2023-10-05T06:58:51.212Z,101586.72
2023-10-05T07:01:22.052Z,101581.78
2023-10-05T07:03:54.129Z,101555.25
2023-10-05T07:06:26.027Z,101549.75
2023-10-05T07:08:55.708Z,101562.03
2023-10-05T07:11:25.666Z,101572.63
2023-10-05T07:13:53.967Z,101566.50
2023-10-05T07:16:22.184Z,101569.81
2023-10-05T07:18:51.101Z,101578.59
2023-10-05T07:21:19.393Z,101575.94
2023-10-05T07:23:48.323Z,101583.09
2023-10-05T07:26:17.938Z,101595.34
2023-10-05T07:28:46.189Z,101593.50
2023-10-05T07:31:14.452Z,101595.53
2023-10-05T07:33:42.813Z,101580.72
2023-10-05T07:36:11.502Z,101576.44
2023-10-05T07:38:40.442Z,101564.63
2023-10-05T07:41:08.870Z,101561.34
2023-10-05T07:43:39.668Z,101575.75
2023-10-05T07:46:08.419Z,101585.03
2023-10-05T07:48:37.438Z,101584.69
2023-10-05T07:51:07.597Z,101599.75
2023-10-05T07:53:35.806Z,101603.28
2023-10-05T07:56:04.023Z,101595.66
2023-10-05T07:58:33.092Z,101593.00
2023-10-05T08:01:03.025Z,101579.91
2023-10-05T08:03:31.388Z,101574.41
2023-10-05T08:05:59.683Z,101567.81
2023-10-05T08:08:28.031Z,101570.47
2023-10-05T08:10:56.226Z,101563.31
2023-10-05T08:13:27.189Z,101555.22
2023-10-05T08:15:55.428Z,101546.25
2023-10-05T08:18:26.884Z,101547.53
2023-10-05T08:20:56.158Z,101531.25
2023-10-05T08:23:24.343Z,101523.97
2023-10-05T08:25:52.532Z,101539.88
2023-10-05T08:28:22.058Z,101553.97
2023-10-05T08:31:06.735Z,101565.41
2023-10-05T08:33:36.870Z,101569.91
2023-10-05T08:36:07.961Z,101567.06
2023-10-05T08:38:37.199Z,101565.06
2023-10-05T08:41:09.061Z,101551.44
2023-10-05T08:43:40.851Z,101522.91
2023-10-05T08:46:12.176Z,101504.94
2023-10-05T08:48:42.483Z,101483.72
2023-10-05T08:51:12.252Z,101454.53
2023-10-05T08:53:45.244Z,101494.34
2023-10-05T08:56:16.977Z,101486.66
2023-10-05T08:58:47.825Z,101479.16
2023-10-05T09:01:28.987Z,101490.25
2023-10-05T09:04:13.757Z,101510.50
2023-10-05T09:06:50.168Z,101492.19
2023-10-05T09:09:20.807Z,101476.91
2023-10-05T09:11:49.025Z,101459.59
2023-10-05T09:14:24.824Z,101466.56
2023-10-05T09:16:57.328Z,101451.91
2023-10-05T09:19:36.904Z,101462.19
2023-10-05T09:22:13.963Z,101469.53
2023-10-05T09:24:45.075Z,101469.88
2023-10-05T09:27:16.007Z,101477.66
2023-10-05T09:29:45.811Z,101467.84
2023-10-05T09:32:37.963Z,101472.19
2023-10-05T09:35:11.612Z,101464.22
2023-10-05T09:37:42.258Z,101452.38
2023-10-05T09:40:17.350Z,101470.16
2023-10-05T09:42:49.221Z,101463.81
2023-10-05T09:45:19.016Z,101463.47
2023-10-05T09:47:49.199Z,101473.56
2023-10-05T09:50:23.167Z,101468.88
2023-10-05T09:52:53.252Z,101469.53
2023-10-05T09:55:22.424Z,101470.97
2023-10-05T09:57:55.266Z,101470.91
2023-10-05T10:00:49.016Z,101456.91
2023-10-05T10:03:18.798Z,101448.94
2023-10-05T10:05:53.244Z,101443.28
2023-10-05T10:08:24.930Z,101435.94
2023-10-05T10:11:04.830Z,101441.91
2023-10-05T10:13:38.777Z,101463.63
2023-10-05T10:16:23.129Z,101478.28
2023-10-05T10:18:54.302Z,101476.06
2023-10-05T10:21:33.937Z,101414.13
2023-10-05T10:24:05.968Z,101395.34
2023-10-05T10:26:38.569Z,101412.94
2023-10-05T10:31:49.444Z,101416.63
2023-10-05T10:34:44.442Z,101404.41
2023-10-05T10:37:40.608Z,101386.63
2023-10-05T10:40:16.217Z,101392.56
2023-10-05T10:42:50.656Z,101396.25
2023-10-05T10:45:24.710Z,101399.72
2023-10-05T10:47:55.270Z,101405.84
2023-10-05T10:50:30.488Z,101388.94
2023-10-05T10:53:00.694Z,101381.78
2023-10-05T10:55:37.011Z,101362.97
2023-10-05T10:58:09.983Z,101367.28
2023-10-05T11:00:56.105Z,101375.91
2023-10-05T11:03:27.940Z,101364.88
2023-10-05T11:05:56.833Z,101371.88
2023-10-05T11:08:32.083Z,101369.81
2023-10-05T11:11:01.622Z,101358.00
2023-10-05T11:13:30.034Z,101358.44
2023-10-05T11:16:01.253Z,101351.53
2023-10-05T11:18:32.336Z,101332.34
2023-10-05T11:21:12.466Z,101360.03
2023-10-05T11:23:49.542Z,101335.97
2023-10-05T11:26:30.222Z,101299.00
2023-10-05T11:29:01.021Z,101294.59
2023-10-05T11:31:58.609Z,101299.34
2023-10-05T11:34:35.539Z,101288.56
2023-10-05T11:37:16.879Z,101283.72
2023-10-05T11:39:50.954Z,101292.41
2023-10-05T11:42:26.044Z,101258.47
2023-10-05T11:44:57.448Z,101271.22
2023-10-05T11:47:34.167Z,101256.50
2023-10-05T11:50:08.970Z,101257.97
2023-10-05T11:52:39.686Z,101256.56
2023-10-05T11:55:13.580Z,101263.09
2023-10-05T11:57:41.955Z,101245.25
2023-10-05T12:00:13.920Z,101244.66
2023-10-05T12:02:44.501Z,101227.66
2023-10-05T12:05:15.954Z,101252.88
2023-10-05T12:07:47.374Z,101226.69
2023-10-05T12:10:17.162Z,101255.78
2023-10-05T12:12:51.795Z,101255.81
2023-10-05T12:15:24.072Z,101236.97
2023-10-05T12:17:52.262Z,101229.41
2023-10-05T12:20:20.801Z,101227.56
2023-10-05T12:22:51.191Z,101223.09
2023-10-05T12:25:25.693Z,101225.75
2023-10-05T12:27:54.387Z,101230.47
2023-10-05T12:30:23.107Z,101223.94
2023-10-05T12:32:52.715Z,101230.50
2023-10-05T12:35:20.725Z,101243.84
2023-10-05T12:37:49.279Z,101238.75
2023-10-05T12:40:27.979Z,101233.63
2023-10-05T12:45:29.506Z,101246.38
2023-10-05T12:47:57.894Z,101237.56
2023-10-05T12:50:27.364Z,101235.47
2023-10-05T12:52:55.667Z,101243.06
2023-10-05T12:55:24.773Z,101237.91
2023-10-05T12:57:53.936Z,101236.91
2023-10-05T13:00:29.333Z,101242.63
2023-10-05T13:03:01.092Z,101239.56
2023-10-05T13:05:35.829Z,101226.81
2023-10-05T13:08:04.147Z,101222.09
2023-10-05T13:10:34.302Z,101226.44
2023-10-05T13:13:03.391Z,101236.47
2023-10-05T13:15:36.289Z,101242.41
2023-10-05T13:18:19.291Z,101224.56
2023-10-05T13:20:49.693Z,101227.25
2023-10-05T13:23:20.391Z,101236.91
2023-10-05T13:25:50.590Z,101243.47
2023-10-05T13:28:19.233Z,101240.16
2023-10-05T13:30:51.745Z,101237.50
2023-10-05T13:33:22.986Z,101243.88
2023-10-05T13:35:52.264Z,101235.03
2023-10-05T13:38:25.744Z,101228.25
2023-10-05T13:41:14.899Z,101240.38
2023-10-05T13:43:43.795Z,101236.47
2023-10-05T13:46:17.731Z,101246.53
2023-10-05T13:48:46.642Z,101227.03
2023-10-05T13:51:17.517Z,101227.41
2023-10-05T13:53:46.925Z,101222.09
2023-10-05T13:56:15.473Z,101207.50
2023-10-05T13:58:45.427Z,101215.53
2023-10-05T14:01:17.462Z,101229.50
2023-10-05T14:03:49.456Z,101222.94
2023-10-05T14:06:17.880Z,101228.09
2023-10-05T14:08:47.391Z,101221.53
2023-10-05T14:11:15.676Z,101250.47
2023-10-05T14:13:44.809Z,101247.81
2023-10-05T14:16:15.359Z,101245.97
2023-10-05T14:18:43.515Z,101239.19
2023-10-05T14:21:11.815Z,101225.88
2023-10-05T14:23:39.724Z,101204.72
2023-10-05T14:26:07.962Z,101224.00
2023-10-05T14:28:35.883Z,101220.72
2023-10-05T14:31:05.340Z,101216.63
2023-10-05T14:33:34.944Z,101216.00
2023-10-05T14:36:02.893Z,101195.72
2023-10-05T14:38:31.047Z,101200.84
2023-10-05T14:41:00.166Z,101209.47
2023-10-05T14:43:32.614Z,101208.22
2023-10-05T14:46:01.685Z,101207.00
2023-10-05T14:48:32.046Z,101207.38
2023-10-05T14:51:03.050Z,101195.94
2023-10-05T14:53:31.201Z,101196.13
2023-10-05T14:55:59.420Z,101185.03
2023-10-05T14:58:28.519Z,101173.56
2023-10-05T15:00:58.131Z,101164.13
2023-10-05T15:03:27.005Z,101155.69
2023-10-05T15:05:54.984Z,101157.94
2023-10-05T15:08:24.207Z,101155.69
2023-10-05T15:10:52.243Z,101156.47
2023-10-05T15:13:21.692Z,101143.59
2023-10-05T15:15:51.326Z,101146.44
2023-10-05T15:18:20.920Z,101146.63
2023-10-05T15:20:48.923Z,101154.03
2023-10-05T15:23:16.992Z,101136.22
2023-10-05T15:25:46.308Z,101138.28
2023-10-05T15:28:17.582Z,101137.84
2023-10-05T15:30:47.796Z,101135.59
2023-10-05T15:33:15.694Z,101137.25
2023-10-05T15:35:43.560Z,101123.50
2023-10-05T15:38:11.478Z,101134.16
2023-10-05T15:40:39.746Z,101127.97
2023-10-05T15:43:08.976Z,101132.69
2023-10-05T15:45:36.973Z,101128.16
2023-10-05T15:48:10.679Z,101123.00
2023-10-05T15:50:40.795Z,101116.03
2023-10-05T15:53:11.008Z,101108.84
2023-10-05T15:55:39.009Z,101110.69
2023-10-05T15:58:10.791Z,101115.22
2023-10-05T16:00:39.672Z,101112.56
2023-10-05T16:03:11.605Z,101112.97
2023-10-05T16:05:40.776Z,101112.78
2023-10-05T16:08:09.550Z,101126.34
2023-10-05T16:10:39.892Z,101120.81
2023-10-05T16:13:10.157Z,101113.22
2023-10-05T16:15:40.278Z,101115.91
2023-10-05T16:18:11.646Z,101123.50
2023-10-05T16:20:42.383Z,101112.22
2023-10-05T16:23:12.725Z,101102.59
2023-10-05T16:25:41.811Z,101110.19
2023-10-05T16:28:11.444Z,101103.22
2023-10-05T16:30:39.635Z,101103.84
2023-10-05T16:33:08.424Z,101094.00
2023-10-05T16:35:36.735Z,101094.78
2023-10-05T16:38:06.243Z,101104.66
2023-10-05T16:40:34.904Z,101104.25
2023-10-05T16:43:03.708Z,101101.59
2023-10-05T16:45:33.137Z,101108.75
2023-10-05T16:48:01.224Z,101115.72
2023-10-05T16:50:30.760Z,101123.31
2023-10-05T16:52:58.654Z,101122.69
2023-10-05T16:55:26.699Z,101134.41
2023-10-05T16:57:54.835Z,101131.75
2023-10-05T17:00:24.938Z,101132.13
2023-10-05T17:02:56.006Z,101134.22
2023-10-05T17:05:27.190Z,101143.22
2023-10-05T17:07:56.760Z,101147.53
2023-10-05T17:10:25.292Z,101146.31
2023-10-05T17:12:55.304Z,101152.03
2023-10-05T17:15:23.679Z,101151.00
2023-10-05T17:17:52.086Z,101149.75
2023-10-05T17:20:22.260Z,101150.19
2023-10-05T17:22:50.384Z,101161.69
2023-10-05T17:25:18.689Z,101154.84
2023-10-05T17:27:46.758Z,101162.03
2023-10-05T17:30:16.076Z,101158.34
2023-10-05T17:32:47.417Z,101148.91
2023-10-05T17:35:23.548Z,101159.56
2023-10-05T17:37:54.264Z,101151.38
2023-10-05T17:40:22.777Z,101153.63
2023-10-05T17:42:50.979Z,101164.50
2023-10-05T17:45:20.211Z,101164.91
2023-10-05T17:47:50.474Z,101171.44
2023-10-05T17:50:18.537Z,101163.88
2023-10-05T17:52:47.040Z,101165.31
2023-10-05T17:55:17.757Z,101173.50
2023-10-05T17:57:45.725Z,101160.56
2023-10-05T18:00:17.171Z,101171.44
2023-10-05T18:02:46.064Z,101175.75
2023-10-05T18:05:17.105Z,101169.59
2023-10-05T18:07:45.685Z,101178.41
2023-10-05T18:10:13.732Z,101191.31
2023-10-05T18:12:42.988Z,101188.03
2023-10-05T18:15:11.550Z,101194.78
2023-10-05T18:17:40.862Z,101191.50
2023-10-05T18:20:09.794Z,101200.09
2023-10-05T18:22:39.003Z,101192.31
2023-10-05T18:25:08.346Z,101189.44
2023-10-05T18:27:36.352Z,101195.38
2023-10-05T18:30:07.393Z,101188.63
2023-10-05T18:32:36.231Z,101196.00
2023-10-05T18:35:04.462Z,101196.81
2023-10-05T18:37:32.469Z,101188.22
2023-10-05T18:40:01.552Z,101193.75
2023-10-05T18:42:29.500Z,101199.25
2023-10-05T18:44:58.805Z,101198.44
2023-10-05T18:47:28.278Z,101199.47
2023-10-05T18:49:56.258Z,101197.41
2023-10-05T18:52:24.277Z,101209.28
2023-10-05T18:54:52.268Z,101202.72
2023-10-05T18:57:20.165Z,101203.75
2023-10-05T18:59:48.106Z,101201.91
2023-10-05T19:02:16.104Z,101208.06
2023-10-05T19:04:45.515Z,101200.06
2023-10-05T19:07:14.226Z,101203.75
2023-10-05T19:09:42.120Z,101208.28
2023-10-05T19:12:10.023Z,101202.13
2023-10-05T19:14:37.999Z,101200.91
2023-10-05T19:17:05.900Z,101197.41
2023-10-05T19:19:33.931Z,101202.56
2023-10-05T19:22:05.758Z,101202.56
2023-10-05T19:24:34.001Z,101185.75
2023-10-05T19:27:01.881Z,101197.22
2023-10-05T19:29:31.731Z,101195.16
2023-10-05T19:31:59.994Z,101202.56
2023-10-05T19:34:28.019Z,101199.88
2023-10-05T19:36:56.195Z,101216.69
2023-10-05T19:39:26.240Z,101203.38
2023-10-05T19:41:54.457Z,101211.16
2023-10-05T19:44:25.086Z,101209.50
2023-10-05T19:46:53.647Z,101207.88
2023-10-05T19:49:26.287Z,101205.00
2023-10-05T19:51:54.899Z,101212.78
2023-10-05T19:54:23.338Z,101217.72
2023-10-05T19:56:52.852Z,101224.06
2023-10-05T19:59:21.433Z,101214.03
2023-10-05T20:01:50.791Z,101209.53
2023-10-05T20:04:18.974Z,101206.03
2023-10-05T20:06:47.062Z,101205.00
2023-10-05T20:09:15.305Z,101201.34
2023-10-05T20:11:43.276Z,101191.50
2023-10-05T20:14:13.390Z,101204.00
2023-10-05T20:16:41.363Z,101186.38
2023-10-05T20:19:11.600Z,101179.63
2023-10-05T20:21:40.911Z,101171.03
2023-10-05T20:24:09.348Z,101188.84
2023-10-05T20:26:38.101Z,101177.56
2023-10-05T20:29:06.101Z,101177.97
2023-10-05T20:31:35.508Z,101173.47
2023-10-05T20:34:03.400Z,101181.69
2023-10-05T20:36:31.424Z,101171.84
2023-10-05T20:38:59.283Z,101173.47
2023-10-05T20:41:27.155Z,101169.16
2023-10-05T20:43:55.137Z,101168.75
2023-10-05T20:46:23.392Z,101175.72
2023-10-05T20:48:52.780Z,101187.41
2023-10-05T20:51:21.245Z,101193.16
2023-10-05T20:53:49.115Z,101192.94
2023-10-05T20:56:17.759Z,101205.22
2023-10-05T20:58:45.679Z,101205.22
2023-10-05T21:01:13.736Z,101202.34
2023-10-05T21:03:41.762Z,101217.34
2023-10-05T21:06:11.011Z,101213.63
2023-10-05T21:08:41.666Z,101218.16
2023-10-05T21:11:09.577Z,101231.03
2023-10-05T21:13:37.581Z,101227.56
2023-10-05T21:16:05.683Z,101229.41
2023-10-05T21:18:33.568Z,101227.56
2023-10-05T21:21:01.494Z,101235.38
2023-10-05T21:23:31.154Z,101228.22
2023-10-05T21:25:59.769Z,101245.22
2023-10-05T21:28:28.427Z,101237.22
2023-10-05T21:30:56.520Z,101246.84
2023-10-05T21:33:24.440Z,101241.53
2023-10-05T21:35:52.357Z,101238.88
2023-10-05T21:38:20.284Z,101239.47
2023-10-05T21:40:49.664Z,101238.88
2023-10-05T21:43:17.606Z,101247.88
2023-10-05T21:45:45.575Z,101245.22
2023-10-05T21:48:13.524Z,101246.03
2023-10-05T21:50:41.389Z,101234.56
2023-10-05T21:53:10.030Z,101237.00
2023-10-05T21:55:37.995Z,101228.38
2023-10-05T21:58:07.265Z,101234.56
2023-10-05T22:00:49.017Z,101236.19
2023-10-05T22:03:17.994Z,101233.53
2023-10-05T22:05:47.222Z,101237.84
2023-10-05T22:08:17.270Z,101228.00
2023-10-05T22:10:46.222Z,101229.22
2023-10-05T22:13:16.006Z,101227.38
2023-10-05T22:15:44.110Z,101223.69
2023-10-05T22:18:12.865Z,101232.50
2023-10-05T22:20:41.970Z,101220.22
2023-10-05T22:23:11.034Z,101223.91
2023-10-05T22:25:39.695Z,101229.22
2023-10-05T22:28:08.874Z,101216.91
2023-10-05T22:30:39.332Z,101217.56
2023-10-05T22:33:07.551Z,101220.41
2023-10-05T22:35:37.138Z,101226.75
2023-10-05T22:38:05.460Z,101224.09
2023-10-05T22:40:35.453Z,101229.63
2023-10-05T22:43:03.666Z,101225.94
2023-10-05T22:45:31.865Z,101223.25
2023-10-05T22:48:01.229Z,101221.41
2023-10-05T22:50:29.194Z,101234.56
2023-10-05T22:52:57.515Z,101214.25
2023-10-05T22:55:26.119Z,101215.69
2023-10-05T22:57:55.467Z,101214.88
2023-10-05T23:00:23.630Z,101218.56
2023-10-05T23:02:51.999Z,101211.78
2023-10-05T23:05:21.579Z,101218.75
2023-10-05T23:07:49.480Z,101218.56
2023-10-05T23:10:17.642Z,101210.38
2023-10-05T23:12:45.641Z,101206.91
2023-10-05T23:15:13.601Z,101201.56
2023-10-05T23:17:41.606Z,101200.75
2023-10-05T23:20:12.659Z,101194.41
2023-10-05T23:22:42.913Z,101196.03
2023-10-05T23:25:22.553Z,101190.69
2023-10-05T23:27:51.394Z,101187.22
2023-10-05T23:30:20.236Z,101188.66
2023-10-05T23:32:49.101Z,101193.16
2023-10-05T23:35:17.830Z,101190.50
2023-10-05T23:37:52.405Z,101195.00
2023-10-05T23:40:21.892Z,101198.47
2023-10-05T23:42:49.871Z,101184.34
2023-10-05T23:45:19.370Z,101187.81
2023-10-05T23:47:49.500Z,101193.38
2023-10-05T23:50:26.863Z,101190.31
2023-10-05T23:52:57.094Z,101183.13
2023-10-05T23:55:25.688Z,101182.31
2023-10-05T23:57:54.007Z,101186.81
